sensor_id;sensor_type;location;lat;lon;timestamp;pressure;altitude;pressure_sealevel;temperature;humidity
70445;BME280;57902;49.638;11.070;2023-12-20T00:01:27;98170.47;;;4.60;100.00
70445;BME280;57902;49.638;11.070;2023-12-20T00:03:53;98165.38;;;4.60;100.00
70445;BME280;57902;49.638;11.070;2023-12-20T00:06:20;98162.00;;;4.58;100.00
70445;BME280;57902;49.638;11.070;2023-12-20T00:08:47;98166.25;;;4.56;100.00
70445;BME280;57902;49.638;11.070;2023-12-20T00:11:14;98161.84;;;4.77;100.00
70445;BME280;57902;49.638;11.070;2023-12-20T00:13:40;98157.66;;;4.68;100.00
70445;BME280;57902;49.638;11.070;2023-12-20T00:16:07;98155.19;;;4.57;100.00
70445;BME280;57902;49.638;11.070;2023-12-20T00:18:33;98153.50;;;4.54;100.00
70445;BME280;57902;49.638;11.070;2023-12-20T00:21:00;98152.69;;;4.52;100.00
70445;BME280;57902;49.638;11.070;2023-12-20T00:23:27;98149.22;;;4.60;100.00
70445;BME280;57902;49.638;11.070;2023-12-20T00:25:53;98133.09;;;4.53;100.00
70445;BME280;57902;49.638;11.070;2023-12-20T00:28:20;98135.53;;;4.64;100.00
70445;BME280;57902;49.638;11.070;2023-12-20T00:30:46;98119.50;;;4.51;100.00
70445;BME280;57902;49.638;11.070;2023-12-20T00:33:13;98125.25;;;4.75;100.00
70445;BME280;57902;49.638;11.070;2023-12-20T00:35:40;98120.09;;;4.81;100.00
70445;BME280;57902;49.638;11.070;2023-12-20T00:38:06;98120.22;;;4.65;100.00
70445;BME280;57902;49.638;11.070;2023-12-20T00:40:34;98127.81;;;4.75;100.00
70445;BME280;57902;49.638;11.070;2023-12-20T00:43:01;98126.09;;;4.75;100.00
70445;BME280;57902;49.638;11.070;2023-12-20T00:45:28;98124.41;;;4.74;100.00
70445;BME280;57902;49.638;11.070;2023-12-20T00:47:54;98119.28;;;4.79;100.00
70445;BME280;57902;49.638;11.070;2023-12-20T00:50:21;98121.06;;;4.67;100.00
70445;BME280;57902;49.638;11.070;2023-12-20T00:52:49;98120.19;;;4.67;100.00
70445;BME280;57902;49.638;11.070;2023-12-20T00:55:15;98120.94;;;4.80;100.00
70445;BME280;57902;49.638;11.070;2023-12-20T00:57:42;98126.09;;;4.77;100.00
70445;BME280;57902;49.638;11.070;2023-12-20T01:00:09;98120.09;;;4.81;100.00
70445;BME280;57902;49.638;11.070;2023-12-20T01:02:36;98112.34;;;4.90;100.00
70445;BME280;57902;49.638;11.070;2023-12-20T01:05:03;98111.50;;;4.88;100.00
70445;BME280;57902;49.638;11.070;2023-12-20T01:07:29;98113.34;;;4.75;100.00
70445;BME280;57902;49.638;11.070;2023-12-20T01:09:56;98108.25;;;4.73;100.00
70445;BME280;57902;49.638;11.070;2023-12-20T01:12:22;98102.31;;;4.67;100.00
70445;BME280;57902;49.638;11.070;2023-12-20T01:14:49;98097.22;;;4.67;100.00
70445;BME280;57902;49.638;11.070;2023-12-20T01:17:15;98096.41;;;4.65;100.00
70445;BME280;57902;49.638;11.070;2023-12-20T01:19:42;98092.28;;;4.50;100.00
70445;BME280;57902;49.638;11.070;2023-12-20T01:22:09;98092.16;;;4.61;100.00
70445;BME280;57902;49.638;11.070;2023-12-20T01:24:35;98086.13;;;4.71;100.00
70445;BME280;57902;49.638;11.070;2023-12-20T01:27:02;98090.50;;;4.58;100.00
70445;BME280;57902;49.638;11.070;2023-12-20T01:29:29;98091.28;;;4.65;100.00
70445;BME280;57902;49.638;11.070;2023-12-20T01:31:55;98085.38;;;4.61;100.00
70445;BME280;57902;49.638;11.070;2023-12-20T01:34:22;98084.47;;;4.64;100.00
70445;BME280;57902;49.638;11.070;2023-12-20T01:36:48;98087.16;;;4.50;100.00
70445;BME280;57902;49.638;11.070;2023-12-20T01:39:17;98084.59;;;4.51;100.00
70445;BME280;57902;49.638;11.070;2023-12-20T01:41:53;98082.09;;;4.47;100.00
70445;BME280;57902;49.638;11.070;2023-12-20T01:44:20;98076.97;;;4.48;100.00
70445;BME280;57902;49.638;11.070;2023-12-20T01:46:47;98080.38;;;4.49;100.00
70445;BME280;57902;49.638;11.070;2023-12-20T01:49:14;98076.97;;;4.48;100.00
70445;BME280;57902;49.638;11.070;2023-12-20T01:51:42;98080.28;;;4.61;100.00
70445;BME280;57902;49.638;11.070;2023-12-20T01:54:09;98075.22;;;4.52;100.00
70445;BME280;57902;49.638;11.070;2023-12-20T01:56:36;98077.78;;;4.50;100.00
70445;BME280;57902;49.638;11.070;2023-12-20T01:59:03;98074.50;;;4.41;100.00
70445;BME280;57902;49.638;11.070;2023-12-20T02:01:31;98069.38;;;4.37;100.00
70445;BME280;57902;49.638;11.070;2023-12-20T02:03:59;98067.72;;;4.36;100.00
70445;BME280;57902;49.638;11.070;2023-12-20T02:06:29;98069.38;;;4.42;100.00
70445;BME280;57902;49.638;11.070;2023-12-20T02:08:57;98075.28;;;4.46;100.00
70445;BME280;57902;49.638;11.070;2023-12-20T02:11:25;98075.34;;;4.38;100.00
70445;BME280;57902;49.638;11.070;2023-12-20T02:13:53;98066.84;;;4.37;100.00
70445;BME280;57902;49.638;11.070;2023-12-20T02:16:19;98071.03;;;4.43;100.00
70445;BME280;57902;49.638;11.070;2023-12-20T02:18:46;98066.13;;;4.25;100.00
70445;BME280;57902;49.638;11.070;2023-12-20T02:21:14;98064.28;;;4.41;100.00
70445;BME280;57902;49.638;11.070;2023-12-20T02:23:41;98070.31;;;4.30;100.00
70445;BME280;57902;49.638;11.070;2023-12-20T02:26:08;98064.41;;;4.22;100.00
70445;BME280;57902;49.638;11.070;2023-12-20T02:28:34;98055.06;;;4.21;100.00
70445;BME280;57902;49.638;11.070;2023-12-20T02:31:01;98055.03;;;4.24;100.00
70445;BME280;57902;49.638;11.070;2023-12-20T02:33:28;98046.63;;;4.16;100.00
70445;BME280;57902;49.638;11.070;2023-12-20T02:35:54;98052.72;;;3.98;100.00
70445;BME280;57902;49.638;11.070;2023-12-20T02:38:21;98050.06;;;4.09;100.00
70445;BME280;57902;49.638;11.070;2023-12-20T02:40:48;98039.00;;;4.11;100.00
70445;BME280;57902;49.638;11.070;2023-12-20T02:43:15;98046.56;;;4.22;100.00
70445;BME280;57902;49.638;11.070;2023-12-20T02:45:42;98046.66;;;4.07;100.00
70445;BME280;57902;49.638;11.070;2023-12-20T02:48:09;98057.75;;;4.04;100.00
70445;BME280;57902;49.638;11.070;2023-12-20T02:50:36;98055.25;;;3.98;100.00
70445;BME280;57902;49.638;11.070;2023-12-20T02:53:02;98061.97;;;4.07;100.00
70445;BME280;57902;49.638;11.070;2023-12-20T02:55:29;98060.13;;;4.24;100.00
70445;BME280;57902;49.638;11.070;2023-12-20T02:57:56;98058.56;;;4.09;100.00
70445;BME280;57902;49.638;11.070;2023-12-20T03:00:22;98051.81;;;4.02;100.00
70445;BME280;57902;49.638;11.070;2023-12-20T03:02:49;98053.53;;;4.01;100.00
70445;BME280;57902;49.638;11.070;2023-12-20T03:05:16;98058.59;;;4.05;100.00
70445;BME280;57902;49.638;11.070;2023-12-20T03:07:43;98058.59;;;4.06;100.00
70445;BME280;57902;49.638;11.070;2023-12-20T03:10:10;98056.94;;;3.97;100.00
70445;BME280;57902;49.638;11.070;2023-12-20T03:12:49;98055.28;;;3.90;100.00
70445;BME280;57902;49.638;11.070;2023-12-20T03:15:16;98061.97;;;4.07;100.00
70445;BME280;57902;49.638;11.070;2023-12-20T03:17:42;98066.34;;;3.94;100.00
70445;BME280;57902;49.638;11.070;2023-12-20T03:20:09;98055.25;;;3.99;100.00
70445;BME280;57902;49.638;11.070;2023-12-20T03:22:36;98059.59;;;3.85;100.00
70445;BME280;57902;49.638;11.070;2023-12-20T03:25:03;98059.59;;;3.82;100.00
70445;BME280;57902;49.638;11.070;2023-12-20T03:27:29;98068.94;;;3.81;100.00
70445;BME280;57902;49.638;11.070;2023-12-20T03:29:56;98070.66;;;3.81;100.00
70445;BME280;57902;49.638;11.070;2023-12-20T03:32:23;98063.84;;;3.81;100.00
70445;BME280;57902;49.638;11.070;2023-12-20T03:34:49;98065.53;;;3.84;100.00
70445;BME280;57902;49.638;11.070;2023-12-20T03:37:16;98065.50;;;3.89;100.00
70445;BME280;57902;49.638;11.070;2023-12-20T03:39:42;98064.72;;;3.76;100.00
70445;BME280;57902;49.638;11.070;2023-12-20T03:42:09;98073.13;;;3.90;100.00
70445;BME280;57902;49.638;11.070;2023-12-20T03:44:38;98068.00;;;3.93;100.00
70445;BME280;57902;49.638;11.070;2023-12-20T03:47:05;98064.69;;;3.85;100.00
70445;BME280;57902;49.638;11.070;2023-12-20T03:49:32;98064.72;;;3.82;100.00
70445;BME280;57902;49.638;11.070;2023-12-20T03:51:59;98072.38;;;3.79;100.00
70445;BME280;57902;49.638;11.070;2023-12-20T03:54:25;98068.16;;;3.73;100.00
70445;BME280;57902;49.638;11.070;2023-12-20T03:56:52;98065.63;;;3.65;100.00
70445;BME280;57902;49.638;11.070;2023-12-20T03:59:18;98063.94;;;3.67;100.00
70445;BME280;57902;49.638;11.070;2023-12-20T04:01:45;98067.25;;;3.76;100.00
70445;BME280;57902;49.638;11.070;2023-12-20T04:04:13;98071.59;;;3.63;100.00
70445;BME280;57902;49.638;11.070;2023-12-20T04:06:40;98082.66;;;3.63;100.00
70445;BME280;57902;49.638;11.070;2023-12-20T04:09:06;98076.66;;;3.69;100.00
70445;BME280;57902;49.638;11.070;2023-12-20T04:11:36;98071.56;;;3.72;100.00
70445;BME280;57902;49.638;11.070;2023-12-20T04:14:03;98069.09;;;3.58;100.00
70445;BME280;57902;49.638;11.070;2023-12-20T04:16:31;98072.47;;;3.57;100.00
70445;BME280;57902;49.638;11.070;2023-12-20T04:18:58;98074.19;;;3.52;100.00
70445;BME280;57902;49.638;11.070;2023-12-20T04:21:24;98074.16;;;3.61;100.00
70445;BME280;57902;49.638;11.070;2023-12-20T04:23:51;98080.09;;;3.63;100.00
70445;BME280;57902;49.638;11.070;2023-12-20T04:26:17;98063.94;;;3.67;100.00
70445;BME280;57902;49.638;11.070;2023-12-20T04:28:44;98072.44;;;3.63;100.00
70445;BME280;57902;49.638;11.070;2023-12-20T04:31:10;98074.19;;;3.52;100.00
70445;BME280;57902;49.638;11.070;2023-12-20T04:33:37;98070.78;;;3.53;100.00
70445;BME280;57902;49.638;11.070;2023-12-20T04:36:04;98075.03;;;3.56;100.00
70445;BME280;57902;49.638;11.070;2023-12-20T04:38:30;98069.13;;;3.49;100.00
70445;BME280;57902;49.638;11.070;2023-12-20T04:40:57;98075.00;;;3.60;100.00
70445;BME280;57902;49.638;11.070;2023-12-20T04:43:24;98074.19;;;3.54;100.00
70445;BME280;57902;49.638;11.070;2023-12-20T04:45:51;98077.63;;;3.49;100.00
70445;BME280;57902;49.638;11.070;2023-12-20T04:48:18;98074.25;;;3.40;100.00
70445;BME280;57902;49.638;11.070;2023-12-20T04:50:44;98079.31;;;3.49;100.00
70445;BME280;57902;49.638;11.070;2023-12-20T04:53:10;98078.47;;;3.48;100.00
70445;BME280;57902;49.638;11.070;2023-12-20T04:55:37;98079.28;;;3.55;100.00
70445;BME280;57902;49.638;11.070;2023-12-20T04:58:03;98074.16;;;3.55;100.00
70445;BME280;57902;49.638;11.070;2023-12-20T05:00:30;98088.66;;;3.52;100.00
70445;BME280;57902;49.638;11.070;2023-12-20T05:02:57;98080.97;;;3.59;100.00
70445;BME280;57902;49.638;11.070;2023-12-20T05:05:24;98086.09;;;3.55;100.00
70445;BME280;57902;49.638;11.070;2023-12-20T05:07:50;98089.44;;;3.66;100.00
70445;BME280;57902;49.638;11.070;2023-12-20T05:10:19;98093.66;;;3.67;100.00
70445;BME280;57902;49.638;11.070;2023-12-20T05:12:45;98090.34;;;3.56;100.00
70445;BME280;57902;49.638;11.070;2023-12-20T05:15:12;98103.91;;;3.58;100.00
70445;BME280;57902;49.638;11.070;2023-12-20T05:17:38;98100.50;;;3.60;100.00
70445;BME280;57902;49.638;11.070;2023-12-20T05:20:06;98098.00;;;3.51;100.00
70445;BME280;57902;49.638;11.070;2023-12-20T05:22:33;98093.78;;;3.44;100.00
70445;BME280;57902;49.638;11.070;2023-12-20T05:24:59;98087.84;;;3.40;100.00
70445;BME280;57902;49.638;11.070;2023-12-20T05:27:26;98095.50;;;3.36;100.00
70445;BME280;57902;49.638;11.070;2023-12-20T05:29:52;98098.91;;;3.28;100.00
70445;BME280;57902;49.638;11.070;2023-12-20T05:32:19;98104.03;;;3.28;100.00
70445;BME280;57902;49.638;11.070;2023-12-20T05:34:46;98104.88;;;3.30;100.00
70445;BME280;57902;49.638;11.070;2023-12-20T05:37:12;98104.00;;;3.41;100.00
70445;BME280;57902;49.638;11.070;2023-12-20T05:39:39;98108.25;;;3.36;100.00
70445;BME280;57902;49.638;11.070;2023-12-20T05:42:05;98115.84;;;3.53;100.00
70445;BME280;57902;49.638;11.070;2023-12-20T05:44:32;98108.19;;;3.51;100.00
70445;BME280;57902;49.638;11.070;2023-12-20T05:46:58;98099.72;;;3.44;100.00
70445;BME280;57902;49.638;11.070;2023-12-20T05:49:25;98120.88;;;3.66;100.00
70445;BME280;57902;49.638;11.070;2023-12-20T05:51:51;98124.28;;;3.59;100.00
70445;BME280;57902;49.638;11.070;2023-12-20T05:54:18;98120.94;;;3.53;100.00
70445;BME280;57902;49.638;11.070;2023-12-20T05:56:45;98133.69;;;3.53;100.00
70445;BME280;57902;49.638;11.070;2023-12-20T05:59:11;98132.81;;;3.52;100.00
70445;BME280;57902;49.638;11.070;2023-12-20T06:01:38;98138.78;;;3.51;100.00
70445;BME280;57902;49.638;11.070;2023-12-20T06:04:04;98132.78;;;3.55;100.00
70445;BME280;57902;49.638;11.070;2023-12-20T06:06:31;98135.28;;;3.71;100.00
70445;BME280;57902;49.638;11.070;2023-12-20T06:08:58;98137.00;;;3.68;100.00
70445;BME280;57902;49.638;11.070;2023-12-20T06:11:25;98142.97;;;3.67;100.00
70445;BME280;57902;49.638;11.070;2023-12-20T06:13:52;98150.59;;;3.72;100.00
70445;BME280;57902;49.638;11.070;2023-12-20T06:16:21;98152.25;;;3.78;100.00
70445;BME280;57902;49.638;11.070;2023-12-20T06:18:48;98160.72;;;3.81;100.00
70445;BME280;57902;49.638;11.070;2023-12-20T06:21:15;98154.81;;;3.75;100.00
70445;BME280;57902;49.638;11.070;2023-12-20T06:23:41;98157.38;;;3.73;100.00
70445;BME280;57902;49.638;11.070;2023-12-20T06:26:08;98171.81;;;3.82;100.00
70445;BME280;57902;49.638;11.070;2023-12-20T06:28:34;98162.47;;;3.73;100.00
70445;BME280;57902;49.638;11.070;2023-12-20T06:31:03;98177.78;;;3.76;100.00
70445;BME280;57902;49.638;11.070;2023-12-20T06:33:30;98181.94;;;3.91;100.00
70445;BME280;57902;49.638;11.070;2023-12-20T06:36:00;98182.84;;;3.78;100.00
70445;BME280;57902;49.638;11.070;2023-12-20T06:38:26;98173.56;;;3.67;100.00
70445;BME280;57902;49.638;11.070;2023-12-20T06:40:53;98171.00;;;3.64;100.00
70445;BME280;57902;49.638;11.070;2023-12-20T06:43:20;98174.41;;;3.60;100.00
70445;BME280;57902;49.638;11.070;2023-12-20T06:46:06;98177.78;;;3.73;100.00
70445;BME280;57902;49.638;11.070;2023-12-20T06:48:33;98182.84;;;3.78;100.00
70445;BME280;57902;49.638;11.070;2023-12-20T06:51:00;98188.81;;;3.74;100.00
70445;BME280;57902;49.638;11.070;2023-12-20T06:53:28;98188.00;;;3.72;100.00
70445;BME280;57902;49.638;11.070;2023-12-20T06:55:55;98201.56;;;3.77;100.00
70445;BME280;57902;49.638;11.070;2023-12-20T06:58:22;98191.34;;;3.77;100.00
70445;BME280;57902;49.638;11.070;2023-12-20T07:00:50;98196.47;;;3.71;100.00
70445;BME280;57902;49.638;11.070;2023-12-20T07:03:18;98196.47;;;3.72;100.00
70445;BME280;57902;49.638;11.070;2023-12-20T07:05:44;98197.31;;;3.71;100.00
70445;BME280;57902;49.638;11.070;2023-12-20T07:08:11;98209.22;;;3.75;100.00
70445;BME280;57902;49.638;11.070;2023-12-20T07:10:40;98206.66;;;3.75;100.00
70445;BME280;57902;49.638;11.070;2023-12-20T07:13:07;98220.25;;;3.83;100.00
70445;BME280;57902;49.638;11.070;2023-12-20T07:15:34;98223.63;;;3.84;100.00
70445;BME280;57902;49.638;11.070;2023-12-20T07:18:02;98223.63;;;3.81;100.00
70445;BME280;57902;49.638;11.070;2023-12-20T07:20:29;98228.78;;;3.72;100.00
70445;BME280;57902;49.638;11.070;2023-12-20T07:22:55;98229.59;;;3.74;100.00
70445;BME280;57902;49.638;11.070;2023-12-20T07:25:22;98238.91;;;3.87;100.00
70445;BME280;57902;49.638;11.070;2023-12-20T07:27:48;98240.66;;;3.82;100.00
70445;BME280;57902;49.638;11.070;2023-12-20T07:30:15;98249.13;;;3.84;100.00
70445;BME280;57902;49.638;11.070;2023-12-20T07:32:42;98247.41;;;3.91;100.00
70445;BME280;57902;49.638;11.070;2023-12-20T07:35:09;98240.63;;;3.85;100.00
70445;BME280;57902;49.638;11.070;2023-12-20T07:37:35;98250.84;;;3.79;100.00
70445;BME280;57902;49.638;11.070;2023-12-20T07:40:02;98249.13;;;3.84;100.00
70445;BME280;57902;49.638;11.070;2023-12-20T07:42:29;98255.94;;;3.80;100.00
70445;BME280;57902;49.638;11.070;2023-12-20T07:44:56;98261.91;;;3.75;100.00
70445;BME280;57902;49.638;11.070;2023-12-20T07:47:23;98257.66;;;3.72;100.00
70445;BME280;57902;49.638;11.070;2023-12-20T07:49:49;98257.63;;;3.89;100.00
70445;BME280;57902;49.638;11.070;2023-12-20T07:52:18;98266.13;;;3.85;100.00
70445;BME280;57902;49.638;11.070;2023-12-20T07:54:45;98262.72;;;3.80;100.00
70445;BME280;57902;49.638;11.070;2023-12-20T07:57:12;98263.56;;;3.88;100.00
70445;BME280;57902;49.638;11.070;2023-12-20T07:59:39;98266.13;;;3.87;100.00
70445;BME280;57902;49.638;11.070;2023-12-20T08:02:05;98271.22;;;3.91;100.00
70445;BME280;57902;49.638;11.070;2023-12-20T08:04:33;98263.56;;;3.91;100.00
70445;BME280;57902;49.638;11.070;2023-12-20T08:06:59;98263.56;;;3.91;100.00
70445;BME280;57902;49.638;11.070;2023-12-20T08:09:26;98261.84;;;3.95;100.00
70445;BME280;57902;49.638;11.070;2023-12-20T08:11:53;98268.63;;;4.00;100.00
70445;BME280;57902;49.638;11.070;2023-12-20T08:14:19;98260.97;;;4.00;100.00
70445;BME280;57902;49.638;11.070;2023-12-20T08:16:46;98272.03;;;4.01;100.00
70445;BME280;57902;49.638;11.070;2023-12-20T08:19:13;98264.34;;;4.10;100.00
70445;BME280;57902;49.638;11.070;2023-12-20T08:21:40;98276.25;;;4.13;100.00
70445;BME280;57902;49.638;11.070;2023-12-20T08:24:08;98275.28;;;4.37;100.00
70445;BME280;57902;49.638;11.070;2023-12-20T08:26:34;98282.94;;;4.34;100.00
70445;BME280;57902;49.638;11.070;2023-12-20T08:29:01;98274.47;;;4.30;100.00
70445;BME280;57902;49.638;11.070;2023-12-20T08:31:28;98275.28;;;4.37;100.00
70445;BME280;57902;49.638;11.070;2023-12-20T08:33:55;98277.88;;;4.31;100.00
70445;BME280;57902;49.638;11.070;2023-12-20T08:36:22;98270.13;;;4.43;100.00
70445;BME280;57902;49.638;11.070;2023-12-20T08:38:50;98270.13;;;4.45;100.00
70445;BME280;57902;49.638;11.070;2023-12-20T08:41:17;98276.97;;;4.38;100.00
70445;BME280;57902;49.638;11.070;2023-12-20T08:43:44;98270.16;;;4.40;100.00
70445;BME280;57902;49.638;11.070;2023-12-20T08:46:10;98264.25;;;4.30;100.00
70445;BME280;57902;49.638;11.070;2023-12-20T08:48:38;98268.47;;;4.34;100.00
70445;BME280;57902;49.638;11.070;2023-12-20T08:51:05;98275.22;;;4.51;100.00
70445;BME280;57902;49.638;11.070;2023-12-20T08:53:35;98264.00;;;4.73;100.00
70445;BME280;57902;49.638;11.070;2023-12-20T08:56:01;98281.09;;;4.62;100.00
70445;BME280;57902;49.638;11.070;2023-12-20T08:58:28;98278.59;;;4.56;100.00
70445;BME280;57902;49.638;11.070;2023-12-20T09:00:55;98273.44;;;4.61;100.00
70445;BME280;57902;49.638;11.070;2023-12-20T09:03:23;98276.03;;;4.53;100.00
70445;BME280;57902;49.638;11.070;2023-12-20T09:05:49;98279.25;;;4.89;100.00
70445;BME280;57902;49.638;11.070;2023-12-20T09:08:16;98285.81;;;5.21;100.00
70445;BME280;57902;49.638;11.070;2023-12-20T09:10:42;98289.81;;;5.51;100.00
70445;BME280;57902;49.638;11.070;2023-12-20T09:13:09;98282.63;;;5.86;100.00
70445;BME280;57902;49.638;11.070;2023-12-20T09:15:35;98270.50;;;6.06;100.00
70445;BME280;57902;49.638;11.070;2023-12-20T09:18:02;98272.09;;;6.20;100.00
70445;BME280;57902;49.638;11.070;2023-12-20T09:20:30;98273.44;;;6.45;100.00
70445;BME280;57902;49.638;11.070;2023-12-20T09:22:58;98268.22;;;6.53;100.00
70445;BME280;57902;49.638;11.070;2023-12-20T09:25:24;98272.38;;;6.62;100.00
70445;BME280;57902;49.638;11.070;2023-12-20T09:27:52;98277.56;;;6.56;100.00
70445;BME280;57902;49.638;11.070;2023-12-20T09:30:19;98281.09;;;6.48;100.00
70445;BME280;57902;49.638;11.070;2023-12-20T09:32:54;98275.72;;;6.67;100.00
70445;BME280;57902;49.638;11.070;2023-12-20T09:35:20;98278.16;;;6.76;100.00
70445;BME280;57902;49.638;11.070;2023-12-20T09:37:48;98285.13;;;6.65;100.00
70445;BME280;57902;49.638;11.070;2023-12-20T09:40:18;98290.88;;;6.82;100.00
70445;BME280;57902;49.638;11.070;2023-12-20T09:42:57;98289.63;;;7.08;100.00
70445;BME280;57902;49.638;11.070;2023-12-20T09:45:24;98290.56;;;7.04;100.00
70445;BME280;57902;49.638;11.070;2023-12-20T09:47:53;98288.84;;;7.03;100.00
70445;BME280;57902;49.638;11.070;2023-12-20T09:50:20;98296.41;;;7.14;100.00
70445;BME280;57902;49.638;11.070;2023-12-20T09:52:52;98300.16;;;6.90;100.00
70445;BME280;57902;49.638;11.070;2023-12-20T09:55:20;98295.22;;;6.77;100.00
70445;BME280;57902;49.638;11.070;2023-12-20T09:57:47;98295.47;;;6.57;100.00
70445;BME280;57902;49.638;11.070;2023-12-20T10:00:15;98300.03;;;6.35;100.00
70445;BME280;57902;49.638;11.070;2023-12-20T10:03:02;98306.06;;;6.29;100.00
70445;BME280;57902;49.638;11.070;2023-12-20T10:05:31;98297.78;;;6.07;100.00
70445;BME280;57902;49.638;11.070;2023-12-20T10:07:59;98301.28;;;6.00;100.00
70445;BME280;57902;49.638;11.070;2023-12-20T10:10:27;98295.47;;;5.81;100.00
70445;BME280;57902;49.638;11.070;2023-12-20T10:13:10;98287.94;;;5.69;100.00
70445;BME280;57902;49.638;11.070;2023-12-20T10:15:37;98289.59;;;5.74;100.00
70445;BME280;57902;49.638;11.070;2023-12-20T10:18:05;98281.34;;;5.44;100.00
70445;BME280;57902;49.638;11.070;2023-12-20T10:20:32;98282.31;;;5.31;100.00
70445;BME280;57902;49.638;11.070;2023-12-20T10:23:00;98281.50;;;5.29;100.00
70445;BME280;57902;49.638;11.070;2023-12-20T10:25:27;98275.56;;;5.27;100.00
70445;BME280;57902;49.638;11.070;2023-12-20T10:28:11;98277.16;;;5.34;100.00
70445;BME280;57902;49.638;11.070;2023-12-20T10:30:40;98273.91;;;5.17;100.00
70445;BME280;57902;49.638;11.070;2023-12-20T10:33:08;98272.13;;;5.28;100.00
70445;BME280;57902;49.638;11.070;2023-12-20T10:35:36;98267.00;;;5.28;100.00
70445;BME280;57902;49.638;11.070;2023-12-20T10:38:05;98262.84;;;5.15;100.00
70445;BME280;57902;49.638;11.070;2023-12-20T10:40:35;98256.09;;;5.07;100.00
70445;BME280;57902;49.638;11.070;2023-12-20T10:43:05;98255.25;;;5.08;100.00
70445;BME280;57902;49.638;11.070;2023-12-20T10:45:32;98253.31;;;5.34;100.00
70445;BME280;57902;49.638;11.070;2023-12-20T10:48:01;98255.16;;;5.18;100.00
70445;BME280;57902;49.638;11.070;2023-12-20T10:50:28;98241.50;;;5.23;100.00
70445;BME280;57902;49.638;11.070;2023-12-20T10:52:57;98244.88;;;5.27;100.00
70445;BME280;57902;49.638;11.070;2023-12-20T10:55:25;98249.88;;;5.39;100.00
70445;BME280;57902;49.638;11.070;2023-12-20T10:58:07;98242.13;;;5.46;100.00
70445;BME280;57902;49.638;11.070;2023-12-20T11:00:40;98238.06;;;5.26;100.00
70445;BME280;57902;49.638;11.070;2023-12-20T11:03:09;98242.28;;;5.32;100.00
70445;BME280;57902;49.638;11.070;2023-12-20T11:08:30;98231.16;;;5.34;100.00
70445;BME280;57902;49.638;11.070;2023-12-20T11:11:07;98221.88;;;5.29;100.00
70445;BME280;57902;49.638;11.070;2023-12-20T11:13:44;98227.88;;;5.24;100.00
70445;BME280;57902;49.638;11.070;2023-12-20T11:16:14;98223.59;;;5.25;100.00
70445;BME280;57902;49.638;11.070;2023-12-20T11:18:41;98221.00;;;5.28;100.00
70445;BME280;57902;49.638;11.070;2023-12-20T11:21:07;98231.34;;;5.14;100.00
70445;BME280;57902;49.638;11.070;2023-12-20T11:23:34;98232.09;;;5.27;100.00
70445;BME280;57902;49.638;11.070;2023-12-20T11:26:02;98232.78;;;5.41;100.00
70445;BME280;57902;49.638;11.070;2023-12-20T11:28:29;98227.00;;;5.22;100.00
70445;BME280;57902;49.638;11.070;2023-12-20T11:30:58;98218.44;;;5.28;100.00
70445;BME280;57902;49.638;11.070;2023-12-20T11:33:37;98219.56;;;5.01;100.00
70445;BME280;57902;49.638;11.070;2023-12-20T11:36:13;98227.91;;;5.20;100.00
70445;BME280;57902;49.638;11.070;2023-12-20T11:38:54;98227.88;;;5.23;100.00
70445;BME280;57902;49.638;11.070;2023-12-20T11:41:26;98227.88;;;5.24;100.00
70445;BME280;57902;49.638;11.070;2023-12-20T11:43:53;98229.78;;;5.01;100.00
70445;BME280;57902;49.638;11.070;2023-12-20T11:46:21;98227.00;;;5.22;100.00
70445;BME280;57902;49.638;11.070;2023-12-20T11:48:48;98227.19;;;5.02;100.00
70445;BME280;57902;49.638;11.070;2023-12-20T11:51:15;98222.81;;;5.14;100.00
70445;BME280;57902;49.638;11.070;2023-12-20T11:53:41;98228.81;;;5.13;100.00
70445;BME280;57902;49.638;11.070;2023-12-20T11:56:11;98219.47;;;5.08;100.00
70445;BME280;57902;49.638;11.070;2023-12-20T11:58:39;98220.25;;;5.20;100.00
70445;BME280;57902;49.638;11.070;2023-12-20T12:01:06;98232.19;;;5.15;100.00
70445;BME280;57902;49.638;11.070;2023-12-20T12:03:35;98221.13;;;5.16;100.00
70445;BME280;57902;49.638;11.070;2023-12-20T12:06:02;98221.94;;;5.19;100.00
70445;BME280;57902;49.638;11.070;2023-12-20T12:08:31;98216.78;;;5.24;100.00
70445;BME280;57902;49.638;11.070;2023-12-20T12:10:58;98213.38;;;5.23;100.00
70445;BME280;57902;49.638;11.070;2023-12-20T12:13:24;98204.91;;;5.17;100.00
70445;BME280;57902;49.638;11.070;2023-12-20T12:15:53;98205.81;;;5.14;100.00
70445;BME280;57902;49.638;11.070;2023-12-20T12:18:20;98210.03;;;5.20;100.00
70445;BME280;57902;49.638;11.070;2023-12-20T12:20:47;98207.34;;;5.32;100.00
70445;BME280;57902;49.638;11.070;2023-12-20T12:23:14;98213.19;;;5.43;100.00
70445;BME280;57902;49.638;11.070;2023-12-20T12:25:41;98210.69;;;5.36;100.00
70445;BME280;57902;49.638;11.070;2023-12-20T12:28:09;98211.56;;;5.36;100.00
70445;BME280;57902;49.638;11.070;2023-12-20T12:30:36;98214.84;;;5.51;100.00
70445;BME280;57902;49.638;11.070;2023-12-20T12:33:11;98207.22;;;5.41;100.00
70445;BME280;57902;49.638;11.070;2023-12-20T12:35:38;98211.56;;;5.36;100.00
70445;BME280;57902;49.638;11.070;2023-12-20T12:38:07;98213.91;;;5.55;100.00
70445;BME280;57902;49.638;11.070;2023-12-20T12:40:34;98212.44;;;5.32;100.00
70445;BME280;57902;49.638;11.070;2023-12-20T12:43:01;98208.22;;;5.28;100.00
70445;BME280;57902;49.638;11.070;2023-12-20T12:45:28;98204.97;;;5.11;100.00
70445;BME280;57902;49.638;11.070;2023-12-20T12:47:55;98202.53;;;4.98;100.00
70445;BME280;57902;49.638;11.070;2023-12-20T12:50:22;98209.34;;;4.96;100.00
70445;BME280;57902;49.638;11.070;2023-12-20T12:52:48;98208.47;;;4.99;100.00
70445;BME280;57902;49.638;11.070;2023-12-20T12:55:15;98202.59;;;4.90;100.00